Time;durP1;ratioP1;P1;durP2;ratioP2;P2;SDS_P1;SDS_P2;PMS_P1;PMS_P2;Temp;Humidity;BMP_temperature;BMP_pressure;BME280_temperature;BME280_humidity;BME280_pressure;Samples;Min_cycle;Max_cycle;Signal;HPM_P1;HPM_P2
2023/06/26 00:00:02;;;;;;;3.88;3.15;;;;;;;35.33;26.84;101263.88;5067626;28;20467;-70
2023/06/26 00:02:28;;;;;;;3.67;2.97;;;;;;;35.57;26.04;101264.06;5061508;28;20052;-71
2023/06/26 00:04:53;;;;;;;4.13;2.95;;;;;;;34.51;27.33;101269.00;5073252;28;20047;-70
2023/06/26 00:07:19;;;;;;;4.22;3.00;;;;;;;34.87;27.63;101274.28;5073247;28;20108;-70
2023/06/26 00:09:45;;;;;;;4.75;3.10;;;;;;;34.47;28.33;101273.91;5057238;28;20026;-71
2023/06/26 00:12:11;;;;;;;5.07;3.00;;;;;;;33.02;31.08;101276.91;5070226;28;20432;-71
2023/06/26 00:14:36;;;;;;;5.55;3.03;;;;;;;32.63;32.33;101273.38;5054024;28;20119;-70
2023/06/26 00:17:02;;;;;;;5.68;2.60;;;;;;;32.42;33.13;101280.84;5083504;28;20042;-71
2023/06/26 00:19:27;;;;;;;6.38;3.40;;;;;;;31.46;34.89;101289.75;5073781;28;20118;-70
2023/06/26 00:21:52;;;;;;;5.53;3.38;;;;;;;32.85;32.80;101276.72;5085199;28;20040;-70
2023/06/26 00:24:18;;;;;;;5.05;3.10;;;;;;;32.30;33.76;101289.16;5074098;28;20028;-70
2023/06/26 00:26:46;;;;;;;3.80;2.80;;;;;;;31.34;35.61;101296.28;5061225;28;20135;-71
2023/06/26 00:29:11;;;;;;;4.78;3.20;;;;;;;32.75;33.28;101303.81;5052453;28;20115;-70
2023/06/26 00:31:37;;;;;;;4.53;2.88;;;;;;;30.95;35.23;101315.91;5054871;28;20124;-70
2023/06/26 00:34:03;;;;;;;5.18;2.67;;;;;;;29.83;37.18;101305.75;5073806;28;20119;-71
2023/06/26 00:36:28;;;;;;;5.70;2.63;;;;;;;30.73;35.78;101314.28;5072691;28;20102;-70
2023/06/26 00:38:54;;;;;;;5.40;2.92;;;;;;;30.16;36.58;101305.69;5065553;28;20248;-70
2023/06/26 00:41:19;;;;;;;5.30;2.42;;;;;;;30.72;35.32;101312.56;5065204;28;20028;-70
2023/06/26 00:43:45;;;;;;;5.63;2.70;;;;;;;30.42;36.32;101311.56;5080001;28;20031;-71
2023/06/26 00:46:13;;;;;;;4.82;2.70;;;;;;;30.67;35.88;101312.97;5059990;28;20118;-70
2023/06/26 00:48:45;;;;;;;4.13;2.20;;;;;;;31.13;34.70;101317.00;5073864;28;20020;-70
2023/06/26 00:51:11;;;;;;;5.22;2.03;;;;;;;30.96;35.74;101310.38;5067555;28;20060;-70
2023/06/26 00:53:37;;;;;;;3.47;2.28;;;;;;;30.50;35.99;101319.88;5071666;28;20051;-70
2023/06/26 00:56:03;;;;;;;5.38;2.47;;;;;;;29.34;38.69;101315.22;5057547;28;20143;-70
2023/06/26 00:58:28;;;;;;;4.60;2.75;;;;;;;28.47;40.36;101322.06;5052473;28;20066;-69
2023/06/26 01:00:54;;;;;;;5.80;1.92;;;;;;;28.14;40.98;101331.78;5068129;28;20546;-70
2023/06/26 01:03:22;;;;;;;6.40;2.90;;;;;;;29.42;39.62;101323.53;5053844;28;20060;-70
2023/06/26 01:05:49;;;;;;;8.75;2.55;;;;;;;29.99;38.19;101316.09;5059582;28;20069;-70
2023/06/26 01:08:15;;;;;;;7.22;2.47;;;;;;;29.19;39.79;101322.69;5078509;28;20476;-70
2023/06/26 01:10:41;;;;;;;5.93;2.47;;;;;;;30.42;37.33;101316.94;5058008;28;20034;-69
2023/06/26 01:13:07;;;;;;;5.30;2.70;;;;;;;28.99;40.43;101321.59;5072653;28;20392;-70
2023/06/26 01:15:33;;;;;;;6.25;2.42;;;;;;;29.51;39.43;101322.78;5069479;28;20043;-70
2023/06/26 01:17:59;;;;;;;8.20;2.53;;;;;;;29.92;38.87;101325.69;5061530;28;20028;-69
2023/06/26 01:20:27;;;;;;;5.53;2.60;;;;;;;29.43;39.82;101322.56;5052487;28;20021;-71
2023/06/26 01:23:14;;;;;;;9.15;3.08;;;;;;;28.35;41.94;101328.41;5052625;28;20126;-70
2023/06/26 01:25:52;;;;;;;7.35;2.72;;;;;;;29.69;39.61;101324.88;5068902;28;20464;-72
2023/06/26 01:28:19;;;;;;;10.68;2.80;;;;;;;27.01;45.22;101325.75;5070393;28;20455;-70
2023/06/26 01:30:46;;;;;;;5.80;2.55;;;;;;;29.56;40.54;101325.91;5071511;28;20112;-71
2023/06/26 01:33:13;;;;;;;6.40;3.10;;;;;;;27.79;44.10;101324.53;5068483;28;20047;-70
2023/06/26 01:35:39;;;;;;;9.55;2.97;;;;;;;27.38;45.36;101323.09;5089977;28;20039;-69
2023/06/26 01:38:16;;;;;;;11.07;3.10;;;;;;;29.99;40.09;101316.09;5054401;28;20078;-70
2023/06/26 01:40:43;;;;;;;9.20;2.75;;;;;;;28.65;42.64;101318.94;5057459;28;20040;-70
2023/06/26 01:43:17;;;;;;;9.05;2.92;;;;;;;29.81;40.38;101321.16;5074110;28;20571;-71
2023/06/26 01:45:48;;;;;;;7.05;2.78;;;;;;;29.33;41.09;101325.13;5052631;28;20020;-70
2023/06/26 01:48:16;;;;;;;9.65;3.13;;;;;;;27.73;44.76;101327.69;5052055;28;20498;-70
2023/06/26 01:50:44;;;;;;;7.97;3.10;;;;;;;28.08;44.36;101340.28;5052420;28;20032;-70
2023/06/26 01:53:17;;;;;;;9.23;2.90;;;;;;;28.78;43.27;101330.41;5076734;28;20439;-70
2023/06/26 01:55:55;;;;;;;9.05;2.83;;;;;;;27.83;45.05;101339.44;5052124;28;20087;-71
2023/06/26 01:58:23;;;;;;;6.05;2.63;;;;;;;28.62;43.08;101336.13;5063809;28;20566;-71
2023/06/26 02:00:49;;;;;;;11.85;2.95;;;;;;;28.15;44.14;101333.50;5052097;28;20034;-71
2023/06/26 02:03:14;;;;;;;5.65;2.60;;;;;;;27.67;45.27;101334.38;5070487;28;20029;-71
2023/06/26 02:05:40;;;;;;;7.93;3.22;;;;;;;28.69;44.04;101333.84;5052372;28;20032;-71
2023/06/26 02:08:07;;;;;;;7.32;3.15;;;;;;;27.99;45.65;101338.28;5053907;28;20540;-70
2023/06/26 02:10:34;;;;;;;7.32;2.70;;;;;;;28.93;42.71;101321.13;5065337;28;20028;-70
2023/06/26 02:12:59;;;;;;;9.45;3.35;;;;;;;29.91;40.88;101335.63;5056465;28;20286;-70
2023/06/26 02:15:25;;;;;;;16.00;3.38;;;;;;;29.59;41.17;101331.06;5083037;28;20036;-70
2023/06/26 02:17:50;;;;;;;12.07;3.05;;;;;;;28.02;44.79;101330.88;5063987;28;20031;-70
2023/06/26 02:20:16;;;;;;;5.38;2.70;;;;;;;29.35;42.34;101327.72;5055479;28;20529;-70
2023/06/26 02:22:42;;;;;;;9.40;3.25;;;;;;;30.05;40.21;101339.81;5051591;28;20036;-70
2023/06/26 02:25:08;;;;;;;9.50;3.30;;;;;;;28.42;43.96;101335.00;5082278;28;20074;-71
2023/06/26 02:27:33;;;;;;;11.88;3.60;;;;;;;28.21;44.78;101348.28;5058622;28;20039;-72
2023/06/26 02:29:58;;;;;;;6.82;2.90;;;;;;;28.42;44.13;101340.38;5055723;28;20032;-71
2023/06/26 02:32:24;;;;;;;8.80;2.70;;;;;;;28.76;43.08;101340.47;5055536;28;20646;-71
2023/06/26 02:34:51;;;;;;;11.15;2.70;;;;;;;28.16;44.26;101335.19;5081098;28;20019;-70
2023/06/26 02:37:17;;;;;;;10.00;3.38;;;;;;;28.59;43.36;101350.69;5059586;28;20021;-70
2023/06/26 02:39:42;;;;;;;9.38;3.10;;;;;;;27.89;44.92;101354.22;5051176;28;20395;-70
2023/06/26 02:42:08;;;;;;;9.80;2.72;;;;;;;29.12;42.09;101357.31;5060864;28;20563;-71
2023/06/26 02:44:33;;;;;;;10.30;2.95;;;;;;;29.40;41.05;101360.47;5073145;28;20484;-70
2023/06/26 02:46:59;;;;;;;9.13;3.15;;;;;;;29.97;40.04;101361.19;5053554;28;20024;-71
2023/06/26 02:49:24;;;;;;;10.20;3.38;;;;;;;29.30;41.14;101365.75;5073147;28;20028;-70
2023/06/26 02:51:49;;;;;;;9.23;2.90;;;;;;;28.98;41.91;101357.56;5069450;28;20446;-70
2023/06/26 02:54:15;;;;;;;10.80;3.58;;;;;;;29.40;40.59;101363.16;5068457;28;20116;-71
2023/06/26 02:56:40;;;;;;;8.60;2.63;;;;;;;28.78;42.08;101365.38;5039988;28;20183;-70
2023/06/26 02:59:05;;;;;;;9.48;2.90;;;;;;;28.52;42.48;101368.28;5030971;28;20039;-70
2023/06/26 03:01:31;;;;;;;8.63;2.80;;;;;;;28.54;42.41;101360.94;5053273;28;20029;-70
2023/06/26 03:03:56;;;;;;;8.10;2.85;;;;;;;29.32;40.78;101371.00;5031456;28;20124;-70
2023/06/26 03:06:22;;;;;;;7.60;2.92;;;;;;;28.52;42.06;101384.41;5049574;28;20025;-71
2023/06/26 03:08:47;;;;;;;7.32;2.72;;;;;;;29.19;40.27;101377.34;5039144;28;20172;-71
2023/06/26 03:11:13;;;;;;;5.45;2.53;;;;;;;29.25;39.96;101382.28;5029991;28;20182;-70
2023/06/26 03:13:38;;;;;;;10.55;3.00;;;;;;;29.16;39.92;101385.69;5062460;28;20385;-71
2023/06/26 03:16:04;;;;;;;5.13;2.60;;;;;;;29.66;39.12;101393.31;5054273;28;20469;-70
2023/06/26 03:18:29;;;;;;;14.93;3.10;;;;;;;29.23;39.73;101389.59;5060718;28;20079;-71
2023/06/26 03:20:56;;;;;;;5.82;2.70;;;;;;;29.72;38.78;101394.69;5064047;28;20447;-70
2023/06/26 03:23:23;;;;;;;5.13;2.58;;;;;;;29.17;39.90;101395.47;5045593;28;20435;-70
2023/06/26 03:25:49;;;;;;;9.60;3.15;;;;;;;28.03;42.61;101393.53;5044053;28;20459;-70
2023/06/26 03:28:15;;;;;;;12.77;3.38;;;;;;;27.66;43.10;101404.31;5038082;28;20051;-71
2023/06/26 03:30:40;;;;;;;9.15;2.65;;;;;;;28.71;41.68;101401.81;5051922;28;20071;-70
2023/06/26 03:33:05;;;;;;;8.95;2.92;;;;;;;29.18;40.45;101412.47;5039925;28;20032;-71
2023/06/26 03:35:31;;;;;;;9.32;2.85;;;;;;;27.84;42.33;101410.97;5053450;28;20035;-71
2023/06/26 03:37:57;;;;;;;9.27;2.92;;;;;;;28.63;41.12;101409.59;5040652;28;20060;-72
2023/06/26 03:40:23;;;;;;;11.60;3.83;;;;;;;29.17;40.36;101402.66;5046442;28;20036;-70
2023/06/26 03:42:48;;;;;;;8.15;2.72;;;;;;;29.15;39.96;101405.50;5039126;28;20032;-71
2023/06/26 03:45:13;;;;;;;10.73;3.25;;;;;;;28.17;42.19;101412.13;5072440;28;20029;-71
2023/06/26 03:47:39;;;;;;;9.30;2.85;;;;;;;28.99;40.68;101415.75;5046266;28;20025;-71
2023/06/26 03:50:05;;;;;;;9.30;2.92;;;;;;;29.11;40.18;101418.34;5052930;28;20051;-71
2023/06/26 03:52:30;;;;;;;11.35;3.53;;;;;;;28.60;41.20;101422.31;5039814;28;20378;-70
2023/06/26 03:54:57;;;;;;;5.93;2.83;;;;;;;28.87;40.25;101418.44;5042536;28;20366;-70
2023/06/26 03:57:23;;;;;;;7.13;2.40;;;;;;;30.49;37.92;101426.00;5052438;28;20116;-69
2023/06/26 03:59:48;;;;;;;9.38;2.88;;;;;;;29.89;38.32;101423.78;5055568;28;20488;-70
2023/06/26 04:02:13;;;;;;;10.10;3.10;;;;;;;28.82;40.92;101435.94;5054126;28;20047;-71
2023/06/26 04:04:39;;;;;;;15.30;3.13;;;;;;;29.65;39.25;101423.97;5054009;28;20020;-72
2023/06/26 04:07:04;;;;;;;7.78;2.67;;;;;;;28.67;40.61;101440.66;5078002;28;20016;-72
2023/06/26 04:09:30;;;;;;;8.45;2.92;;;;;;;28.77;40.81;101441.69;5073871;28;20430;-72
2023/06/26 04:11:55;;;;;;;11.30;3.08;;;;;;;29.87;37.99;101433.84;5084111;28;20415;-70
2023/06/26 04:14:21;;;;;;;9.63;3.28;;;;;;;29.80;38.88;101440.69;5076549;28;20043;-70
2023/06/26 04:16:46;;;;;;;7.93;3.20;;;;;;;28.99;39.94;101453.44;5071600;28;20499;-70
2023/06/26 04:19:12;;;;;;;12.38;3.08;;;;;;;29.40;39.43;101454.69;5080427;28;20040;-71
2023/06/26 04:21:38;;;;;;;6.68;2.67;;;;;;;28.21;42.03;101462.00;5062494;28;20746;-71
2023/06/26 04:24:03;;;;;;;9.98;3.17;;;;;;;29.25;39.58;101463.03;5056222;28;20032;-71
2023/06/26 04:26:29;;;;;;;6.53;2.55;;;;;;;29.47;39.40;101477.47;5072324;28;20025;-70
2023/06/26 04:28:54;;;;;;;8.18;2.55;;;;;;;28.44;40.83;101483.59;5053939;28;20126;-70
2023/06/26 04:31:20;;;;;;;9.80;2.97;;;;;;;28.84;40.51;101482.38;5069012;28;20157;-70
2023/06/26 04:33:50;;;;;;;7.47;2.38;;;;;;;29.31;39.89;101482.38;5067958;28;20105;-70
2023/06/26 04:36:16;;;;;;;7.28;2.63;;;;;;;28.81;40.54;101480.81;5073925;28;20035;-70
2023/06/26 04:38:42;;;;;;;9.93;2.78;;;;;;;27.86;42.33;101473.50;5070981;28;20032;-72
2023/06/26 04:41:07;;;;;;;10.18;3.00;;;;;;;30.27;37.86;101476.31;5058943;28;20146;-71
2023/06/26 04:43:32;;;;;;;13.00;2.63;;;;;;;29.84;38.11;101485.25;5071216;28;20119;-70
2023/06/26 04:45:58;;;;;;;9.05;2.67;;;;;;;29.51;38.78;101481.63;5072518;28;20468;-70
2023/06/26 04:48:23;;;;;;;11.15;3.00;;;;;;;30.03;37.69;101491.84;5053124;28;20028;-71
2023/06/26 04:50:53;;;;;;;7.28;2.78;;;;;;;28.77;39.46;101490.94;5053040;28;20024;-70
2023/06/26 04:53:19;;;;;;;4.63;2.08;;;;;;;30.25;37.21;101491.78;5082510;28;20464;-70
2023/06/26 04:55:45;;;;;;;6.22;2.40;;;;;;;29.28;38.99;101505.84;5068091;28;20044;-70
2023/06/26 04:58:10;;;;;;;17.65;2.78;;;;;;;30.84;35.80;101499.50;5054438;28;20052;-71
2023/06/26 05:00:36;;;;;;;5.13;2.50;;;;;;;30.06;36.98;101513.16;5056701;28;20028;-71
2023/06/26 05:03:01;;;;;;;8.38;2.53;;;;;;;31.96;33.83;101502.31;5055484;28;20469;-70
2023/06/26 05:05:28;;;;;;;7.53;2.22;;;;;;;32.90;32.07;101501.75;5052320;28;20027;-71
2023/06/26 05:07:55;;;;;;;5.55;2.35;;;;;;;32.81;32.29;101510.75;5052395;28;20117;-70
2023/06/26 05:10:20;;;;;;;4.82;1.88;;;;;;;33.97;30.53;101511.31;5052889;28;20020;-71
2023/06/26 05:12:46;;;;;;;6.10;1.98;;;;;;;31.37;34.16;101518.28;5052531;28;20035;-71
2023/06/26 05:15:11;;;;;;;3.85;1.98;;;;;;;32.39;32.84;101524.56;5054656;28;20032;-71
2023/06/26 05:17:36;;;;;;;4.22;1.90;;;;;;;31.54;33.85;101527.59;5059394;28;20028;-70
2023/06/26 05:20:03;;;;;;;3.78;2.10;;;;;;;31.74;34.17;101525.00;5072614;28;20040;-71
2023/06/26 05:22:29;;;;;;;4.47;2.22;;;;;;;30.80;36.11;101528.56;5055184;28;20032;-71
2023/06/26 05:24:58;;;;;;;4.22;2.10;;;;;;;30.99;35.08;101540.50;5078469;28;20285;-71
2023/06/26 05:27:25;;;;;;;4.70;2.00;;;;;;;31.51;35.09;101541.38;5070824;28;20034;-71
2023/06/26 05:29:50;;;;;;;4.55;2.00;;;;;;;30.58;36.58;101549.28;5066659;28;20043;-70
2023/06/26 05:32:19;;;;;;;7.72;1.83;;;;;;;29.25;38.55;101553.66;5052029;28;20025;-71
2023/06/26 05:34:49;;;;;;;6.18;1.92;;;;;;;28.46;40.80;101562.28;5078637;28;20065;-70
2023/06/26 05:37:21;;;;;;;2.80;1.75;;;;;;;27.74;41.68;101557.66;5052420;28;20104;-71
2023/06/26 05:39:47;;;;;;;3.88;1.73;;;;;;;28.18;41.58;101563.47;5052751;28;20021;-71
2023/06/26 05:42:12;;;;;;;3.40;1.73;;;;;;;28.23;41.77;101564.00;5073098;28;20021;-70
2023/06/26 05:44:38;;;;;;;4.13;2.20;;;;;;;29.39;39.25;101580.38;5070838;28;20484;-70
2023/06/26 05:47:03;;;;;;;4.88;1.92;;;;;;;29.31;39.31;101573.91;5067612;28;20016;-70
2023/06/26 05:49:29;;;;;;;10.85;2.00;;;;;;;28.24;41.25;101576.47;5068391;28;20366;-71
2023/06/26 05:51:54;;;;;;;2.63;1.85;;;;;;;28.83;40.16;101588.28;5070234;28;20643;-71
2023/06/26 05:54:20;;;;;;;11.32;2.00;;;;;;;29.46;38.38;101594.22;5069013;28;20032;-70
2023/06/26 05:56:47;;;;;;;3.65;1.58;;;;;;;27.86;40.41;101594.38;5065906;28;20044;-71
2023/06/26 05:59:15;;;;;;;4.90;1.60;;;;;;;27.30;41.10;101599.16;5069506;28;20028;-71
2023/06/26 06:01:40;;;;;;;3.05;1.60;;;;;;;29.38;37.45;101591.28;5055638;28;20036;-70
2023/06/26 06:04:06;;;;;;;1.48;1.15;;;;;;;29.45;36.79;101581.72;5052115;28;20031;-71
2023/06/26 06:06:31;;;;;;;7.15;1.55;;;;;;;28.18;38.91;101591.22;5057366;28;20056;-69
2023/06/26 06:08:57;;;;;;;5.82;1.58;;;;;;;28.44;38.21;101588.44;5051958;28;20035;-70
2023/06/26 06:11:22;;;;;;;2.13;0.90;;;;;;;27.99;38.31;101601.56;5077101;28;20051;-73
2023/06/26 06:13:48;;;;;;;1.50;1.40;;;;;;;29.05;36.96;101604.50;5050198;28;20043;-72
2023/06/26 06:16:13;;;;;;;3.75;1.35;;;;;;;29.79;35.34;101619.47;5051358;28;20029;-70
2023/06/26 06:18:39;;;;;;;4.13;1.20;;;;;;;30.78;33.72;101609.66;5051661;28;20035;-71
2023/06/26 06:21:04;;;;;;;2.75;1.20;;;;;;;30.10;32.98;101617.91;5050965;28;20020;-70
2023/06/26 06:23:29;;;;;;;2.63;0.70;;;;;;;29.33;34.77;101625.75;5051969;28;20032;-72
2023/06/26 06:25:55;;;;;;;5.13;0.98;;;;;;;29.81;33.60;101641.75;5052324;28;20340;-72
2023/06/26 06:28:20;;;;;;;3.78;1.02;;;;;;;31.36;32.11;101639.94;5052086;28;20020;-71
2023/06/26 06:30:47;;;;;;;1.95;0.75;;;;;;;33.17;29.61;101632.81;5069593;28;20040;-71
2023/06/26 06:33:13;;;;;;;4.43;0.85;;;;;;;29.85;33.57;101654.03;5052237;28;20016;-72
2023/06/26 06:35:39;;;;;;;1.35;0.95;;;;;;;29.89;33.88;101655.50;5050996;28;20029;-72
2023/06/26 06:38:05;;;;;;;5.78;1.17;;;;;;;28.76;35.19;101647.06;5052279;28;20039;-71
2023/06/26 06:40:30;;;;;;;4.72;1.02;;;;;;;27.23;37.90;101657.75;5075130;28;20020;-71
2023/06/26 06:42:55;;;;;;;4.13;0.85;;;;;;;28.06;36.87;101656.59;5067227;28;20111;-71
2023/06/26 06:45:21;;;;;;;2.60;0.95;;;;;;;28.54;35.79;101650.44;5066713;28;20024;-71
2023/06/26 06:47:46;;;;;;;1.67;1.05;;;;;;;29.80;33.83;101656.22;5075767;28;20035;-72
2023/06/26 06:50:12;;;;;;;1.75;0.93;;;;;;;30.84;31.91;101651.44;5091597;28;20365;-73
2023/06/26 06:52:39;;;;;;;6.30;1.08;;;;;;;32.28;29.74;101675.13;5083646;28;20032;-71
2023/06/26 06:55:08;;;;;;;2.63;0.80;;;;;;;31.55;30.73;101674.31;5070440;28;20101;-72
2023/06/26 06:57:37;;;;;;;3.78;0.85;;;;;;;32.33;29.54;101676.56;5066048;28;20040;-72
2023/06/26 07:00:08;;;;;;;0.90;0.70;;;;;;;31.30;30.82;101673.72;5076954;28;20031;-72
2023/06/26 07:02:38;;;;;;;3.83;0.75;;;;;;;33.14;28.54;101681.84;5057394;28;20033;-73
2023/06/26 07:05:04;;;;;;;2.35;0.80;;;;;;;32.41;29.39;101684.84;5070972;28;20037;-72
2023/06/26 07:07:31;;;;;;;2.03;1.08;;;;;;;32.02;30.37;101684.69;5068291;28;20480;-72
2023/06/26 07:10:08;;;;;;;4.78;0.77;;;;;;;33.45;28.42;101684.38;5062632;28;20036;-72
2023/06/26 07:12:37;;;;;;;4.53;1.30;;;;;;;32.96;28.43;101674.44;5070092;28;20028;-72
2023/06/26 07:15:04;;;;;;;2.10;0.68;;;;;;;34.02;27.23;101681.69;5055593;28;20020;-73
2023/06/26 07:17:31;;;;;;;2.90;0.82;;;;;;;34.72;26.78;101680.31;5066397;28;20040;-71
2023/06/26 07:19:56;;;;;;;2.45;1.10;;;;;;;36.16;25.30;101690.91;5069276;28;20024;-73
2023/06/26 07:22:22;;;;;;;2.45;0.80;;;;;;;35.84;25.94;101692.47;5057248;28;20031;-72
2023/06/26 07:24:47;;;;;;;4.25;0.95;;;;;;;35.76;25.83;101692.41;5054934;28;20032;-73
2023/06/26 07:27:14;;;;;;;3.55;1.15;;;;;;;31.77;29.87;101703.06;5077240;28;20421;-72
2023/06/26 07:29:40;;;;;;;2.38;0.80;;;;;;;33.23;28.42;101707.19;5073412;28;20039;-73
2023/06/26 07:32:06;;;;;;;6.18;0.90;;;;;;;32.48;29.09;101724.75;5073373;28;20024;-73
2023/06/26 07:34:31;;;;;;;4.95;1.10;;;;;;;32.10;29.63;101717.31;5063524;28;20055;-73
2023/06/26 07:36:56;;;;;;;3.38;1.00;;;;;;;34.83;25.93;101718.13;5069761;28;20388;-73
2023/06/26 07:39:22;;;;;;;1.92;0.93;;;;;;;34.07;26.01;101720.03;5075257;28;20028;-73
2023/06/26 07:41:47;;;;;;;1.73;0.93;;;;;;;34.49;26.30;101722.31;5076234;28;20032;-73
2023/06/26 07:44:14;;;;;;;2.65;1.17;;;;;;;34.07;26.78;101721.91;5073594;28;20032;-74
2023/06/26 07:46:39;;;;;;;3.90;1.00;;;;;;;34.09;27.17;101728.06;5074225;28;20013;-74
2023/06/26 07:49:05;;;;;;;1.33;0.70;;;;;;;33.86;26.93;101725.69;5067544;28;20526;-73
2023/06/26 07:51:30;;;;;;;3.00;0.80;;;;;;;32.86;28.79;101738.53;5085971;28;20115;-73
2023/06/26 07:53:56;;;;;;;5.03;0.90;;;;;;;35.36;25.47;101723.72;5074585;28;20024;-72
2023/06/26 07:56:21;;;;;;;3.22;0.90;;;;;;;34.72;25.52;101727.31;5071732;28;20128;-73
2023/06/26 07:58:46;;;;;;;1.88;0.93;;;;;;;35.33;24.73;101730.31;5091282;28;20028;-73
2023/06/26 08:01:12;;;;;;;4.05;0.90;;;;;;;33.73;26.59;101736.81;5066242;28;20048;-73
2023/06/26 08:03:37;;;;;;;3.80;0.75;;;;;;;32.74;28.19;101745.06;5073224;28;20085;-74
2023/06/26 08:06:03;;;;;;;2.55;0.80;;;;;;;34.28;26.56;101746.94;5055075;28;20059;-72
2023/06/26 08:08:29;;;;;;;2.35;0.70;;;;;;;35.18;25.77;101738.13;5055188;28;20095;-73
2023/06/26 08:10:54;;;;;;;4.03;1.23;;;;;;;33.53;27.60;101741.41;5071810;28;20058;-73
2023/06/26 08:13:19;;;;;;;2.45;0.88;;;;;;;34.75;25.94;101758.72;5082521;28;20119;-73
2023/06/26 08:15:45;;;;;;;3.42;1.05;;;;;;;33.33;27.65;101753.25;5072023;28;20547;-73
2023/06/26 08:18:10;;;;;;;2.63;1.08;;;;;;;32.81;27.66;101747.06;5065829;28;20365;-73
2023/06/26 08:20:36;;;;;;;2.13;0.80;;;;;;;32.32;28.54;101758.72;5053629;28;20419;-73
2023/06/26 08:23:04;;;;;;;4.28;0.82;;;;;;;33.79;26.47;101768.78;5057047;28;20054;-73
2023/06/26 08:25:29;;;;;;;2.40;1.00;;;;;;;36.40;23.48;101763.69;5055345;28;20066;-74
2023/06/26 08:27:55;;;;;;;3.38;1.00;;;;;;;36.07;23.90;101773.53;5074531;28;20501;-73
2023/06/26 08:30:21;;;;;;;2.53;0.80;;;;;;;33.69;26.48;101767.94;5072322;28;20028;-73
2023/06/26 08:32:46;;;;;;;1.95;0.85;;;;;;;35.24;25.29;101770.13;5056237;28;20032;-73
2023/06/26 08:35:12;;;;;;;2.83;0.98;;;;;;;37.48;22.49;101771.09;5054125;28;20032;-73
2023/06/26 08:37:38;;;;;;;2.20;0.98;;;;;;;35.26;24.86;101768.09;5054397;28;20494;-72
2023/06/26 08:40:04;;;;;;;4.25;1.27;;;;;;;33.42;26.45;101779.50;5060116;28;20028;-74
2023/06/26 08:42:29;;;;;;;1.00;0.73;;;;;;;35.20;25.07;101768.72;5053394;28;20077;-72
2023/06/26 08:44:55;;;;;;;1.95;0.60;;;;;;;35.67;23.67;101765.75;5067582;28;20497;-73
2023/06/26 08:47:21;;;;;;;2.85;1.05;;;;;;;33.35;26.89;101783.78;5071270;28;20028;-74
2023/06/26 08:49:53;;;;;;;2.42;0.93;;;;;;;34.23;25.23;101787.22;5056815;28;20032;-75
2023/06/26 08:52:23;;;;;;;0.70;0.52;;;;;;;32.84;27.67;101783.84;5072332;28;20025;-73
2023/06/26 08:54:55;;;;;;;2.75;0.90;;;;;;;32.46;28.49;101785.38;5053518;28;20039;-73
2023/06/26 08:57:23;;;;;;;1.35;0.82;;;;;;;32.54;28.44;101780.16;5054183;28;20132;-74
2023/06/26 08:59:48;;;;;;;3.42;1.02;;;;;;;34.78;25.53;101785.56;5062585;28;20028;-74
2023/06/26 09:02:14;;;;;;;3.67;1.10;;;;;;;34.44;25.47;101786.16;5071414;28;20029;-73
2023/06/26 09:04:40;;;;;;;1.55;0.95;;;;;;;34.05;25.99;101791.72;5053350;28;20036;-73
2023/06/26 09:07:06;;;;;;;1.95;0.73;;;;;;;34.51;24.42;101795.41;5054100;28;20118;-74
2023/06/26 09:09:32;;;;;;;1.20;0.85;;;;;;;33.18;27.54;101794.28;5070845;28;20028;-74
2023/06/26 09:11:57;;;;;;;2.75;0.98;;;;;;;33.81;25.44;101799.31;5073415;28;20488;-74
2023/06/26 09:14:24;;;;;;;3.38;1.30;;;;;;;32.44;26.92;101800.91;5076928;28;20523;-73
2023/06/26 09:16:49;;;;;;;5.05;1.25;;;;;;;34.18;25.12;101807.66;5053307;28;20032;-73
2023/06/26 09:19:15;;;;;;;2.92;0.80;;;;;;;33.72;25.61;101815.56;5054373;28;20032;-72
2023/06/26 09:21:43;;;;;;;1.50;0.80;;;;;;;33.51;25.62;101813.88;5056444;28;20028;-73
2023/06/26 09:24:10;;;;;;;1.20;0.80;;;;;;;33.67;24.72;101820.56;5055934;28;20028;-73
2023/06/26 09:26:37;;;;;;;2.47;1.20;;;;;;;34.80;24.76;101824.25;5053292;28;20401;-74
2023/06/26 09:29:04;;;;;;;2.42;0.95;;;;;;;35.58;23.67;101815.63;5070952;28;20097;-73
2023/06/26 09:31:30;;;;;;;3.17;0.90;;;;;;;34.17;24.57;101825.81;5057787;28;20371;-74
2023/06/26 09:34:02;;;;;;;2.10;0.90;;;;;;;33.42;25.09;101847.22;5071421;28;20025;-75
2023/06/26 09:36:33;;;;;;;0.98;0.60;;;;;;;34.63;24.68;101843.06;5060134;28;20032;-74
2023/06/26 09:39:10;;;;;;;2.08;0.85;;;;;;;37.30;22.42;101833.94;5058678;28;20035;-74
2023/06/26 09:41:40;;;;;;;1.92;0.80;;;;;;;35.43;25.39;101828.91;5053231;28;20048;-74
2023/06/26 09:44:07;;;;;;;2.90;0.80;;;;;;;35.51;22.87;101836.28;5072277;28;20513;-75
2023/06/26 09:46:33;;;;;;;7.85;1.08;;;;;;;35.72;22.66;101837.81;5066527;28;21522;-76
2023/06/26 09:49:12;;;;;;;4.03;0.90;;;;;;;34.96;23.56;101854.34;5056907;28;20036;-77
2023/06/26 09:51:40;;;;;;;2.13;1.02;;;;;;;34.12;24.63;101849.78;5057704;28;20091;-75
2023/06/26 09:54:06;;;;;;;5.30;1.20;;;;;;;34.52;24.95;101854.13;5070925;28;20483;-75
2023/06/26 09:56:32;;;;;;;1.92;0.80;;;;;;;35.08;23.80;101860.44;5068561;28;20039;-73
2023/06/26 09:59:01;;;;;;;3.63;1.10;;;;;;;35.98;24.13;101859.63;5064167;28;20074;-72
2023/06/26 10:01:27;;;;;;;5.38;1.00;;;;;;;34.39;24.96;101862.59;5071788;28;20036;-73
2023/06/26 10:03:53;;;;;;;3.35;1.00;;;;;;;32.49;26.67;101871.66;5053326;28;20040;-73
2023/06/26 10:06:25;;;;;;;5.05;1.08;;;;;;;32.78;27.60;101870.97;5062964;28;20193;-73
2023/06/26 10:08:51;;;;;;;1.77;0.77;;;;;;;32.55;27.27;101875.69;5057941;28;20399;-72
2023/06/26 10:11:20;;;;;;;3.28;1.45;;;;;;;32.57;27.26;101869.16;5067903;28;20293;-73
2023/06/26 10:13:50;;;;;;;2.70;1.00;;;;;;;31.74;29.03;101876.28;5072166;28;20032;-74
2023/06/26 10:16:25;;;;;;;1.15;0.90;;;;;;;32.62;27.72;101879.59;5070625;28;20027;-72
2023/06/26 10:19:02;;;;;;;1.95;1.10;;;;;;;32.83;27.79;101879.56;5058166;28;20036;-73
2023/06/26 10:21:29;;;;;;;2.13;0.93;;;;;;;33.22;27.29;101885.09;5076120;28;20039;-74
2023/06/26 10:23:56;;;;;;;4.55;0.90;;;;;;;32.10;27.82;101882.22;5072817;28;20024;-74
2023/06/26 10:26:24;;;;;;;1.23;0.70;;;;;;;30.47;30.22;101886.41;5075329;28;20020;-74
2023/06/26 10:28:52;;;;;;;2.97;0.93;;;;;;;31.23;28.93;101894.78;5088241;28;20073;-74
2023/06/26 10:31:21;;;;;;;2.65;0.90;;;;;;;33.67;26.42;101880.19;5058146;28;20492;-76
2023/06/26 10:33:48;;;;;;;2.25;0.90;;;;;;;32.13;27.55;101890.06;5057165;28;20032;-76
2023/06/26 10:36:19;;;;;;;1.90;0.80;;;;;;;32.60;27.82;101885.13;5077803;28;20040;-74
2023/06/26 10:38:51;;;;;;;1.88;0.90;;;;;;;32.37;27.19;101888.97;5062216;28;20039;-75
2023/06/26 10:41:19;;;;;;;;;;;;;;;32.34;27.64;101892.78;5071046;28;20078;-75
2023/06/26 10:43:47;;;;;;;2.03;1.00;;;;;;;33.31;26.08;101899.69;5052949;28;19908;-74
2023/06/26 10:46:15;;;;;;;1.85;0.95;;;;;;;31.21;28.49;101910.25;5053002;28;20017;-74
2023/06/26 10:49:12;;;;;;;1.58;0.80;;;;;;;32.62;26.87;101904.78;5068181;28;20028;-73
2023/06/26 10:51:37;;;;;;;1.70;0.55;;;;;;;33.43;25.37;101905.84;5057681;28;20035;-73
2023/06/26 10:54:03;;;;;;;3.00;0.70;;;;;;;30.96;27.25;101912.19;5064531;28;20028;-71
2023/06/26 10:56:59;;;;;;;1.77;0.60;;;;;;;32.05;26.08;101906.09;5066820;28;20028;-76
2023/06/26 10:59:28;;;;;;;2.88;0.40;;;;;;;32.12;26.07;101901.88;5051317;28;20374;-73
2023/06/26 11:01:58;;;;;;;1.90;0.93;;;;;;;34.94;23.95;101916.13;5051570;28;20040;-72
2023/06/26 11:04:35;;;;;;;5.22;1.02;;;;;;;33.52;25.01;101926.66;5058586;28;20613;-73
2023/06/26 11:07:14;;;;;;;2.92;0.50;;;;;;;33.24;24.60;101937.28;5078482;28;20484;-73
2023/06/26 11:10:13;;;;;;;3.25;0.80;;;;;;;33.16;24.50;101931.69;5055292;28;20036;-75
2023/06/26 11:12:41;;;;;;;1.60;0.57;;;;;;;32.51;24.94;101923.81;5060756;28;20541;-72
2023/06/26 11:15:27;;;;;;;1.55;0.55;;;;;;;32.69;25.16;101920.50;5070560;28;20052;-74
2023/06/26 11:17:53;;;;;;;0.73;0.65;;;;;;;33.79;25.35;101936.00;5050898;28;20071;-73
2023/06/26 11:20:18;;;;;;;3.13;0.60;;;;;;;32.31;25.20;101939.03;5071901;28;20024;-73
2023/06/26 11:22:44;;;;;;;3.53;0.80;;;;;;;32.47;24.86;101925.06;5056228;28;20028;-75